Ana Sayfa
METAR-TAF:

METAR-TAF

Havaalanları :

Shageluk, Alaska, Amerika Birleşik Devletleri

Enlem: 62-41-32N, Boylam: 159-34-09W, yükseklik: 24 m

Güncel hava durumu gözlemi

Rapor saat 05:02 UTC de 40 dakika önce yapıldı.
Rüzgar kuzey/kuzeybatıdan 7 kt ve 14 kt'a kadar ani rüzgarlar
Sıcaklık 8°C
Nem 42%
Basınç 1009 hPa
Görüş mesafesi: 16.1 km
Açık gökyüzü

METAR: PAHX 270502Z AUTO 34007G14KT 10SM CLR 08/M04 A2980 RMK AO2 SLP092 T00831039

Saat: 21:42 (05:42 UTC)


TAF: eksik

4.000'den fazla havaalanı için hava durumu gözlemleri ve tahminleri (METAR ve TAF raporları).

Kullanılabilir istasyonlar harita üzerinde sarı ve kırmızı noktalarla gösterilir.

İstasyonun adını görmek için fareyi noktanın üzerinde gezdirin.

Sonrasında hava gözlem ve tahminlerini görmek için tıklayın.

Haritayı değiştirmek için: yaklaştırmak için siyah artı işaretli yeşil düğmeye ve uzaklaştırmak için de eksi işaretli düğmeye hızla tıklayın; bitişik haritalar için yeşil okları kullanın.


METAR-TAF: